Time;durP1;ratioP1;P1;durP2;ratioP2;P2;SDS_P1;SDS_P2;PMS_P1;PMS_P2;Temp;Humidity;BMP_temperature;BMP_pressure;BME280_temperature;BME280_humidity;BME280_pressure;Samples;Min_cycle;Max_cycle;Signal;HPM_P1;HPM_P2
2023/05/28 00:02:15;;;;;;;7.00;3.40;;;12.70;86.30;;;;;;5017300;28;20113;-66
2023/05/28 00:04:42;;;;;;;7.60;2.63;;;12.70;86.50;;;;;;5018123;28;20144;-66
2023/05/28 00:07:10;;;;;;;6.68;2.67;;;12.60;87.50;;;;;;5012942;28;20125;-66
2023/05/28 00:09:41;;;;;;;4.38;2.97;;;12.70;87.10;;;;;;5015156;28;20072;-65
2023/05/28 00:12:07;;;;;;;6.35;3.38;;;12.60;87.60;;;;;;5002270;28;20057;-66
2023/05/28 00:14:33;;;;;;;6.90;2.90;;;12.70;89.10;;;;;;5018393;28;20025;-65
2023/05/28 00:16:59;;;;;;;7.35;3.00;;;12.60;89.00;;;;;;5017804;28;20061;-66
2023/05/28 00:19:25;;;;;;;3.75;2.42;;;12.60;89.50;;;;;;5018609;28;20104;-65
2023/05/28 00:21:51;;;;;;;6.05;3.10;;;12.60;89.50;;;;;;5014438;28;20402;-65
2023/05/28 00:24:17;;;;;;;5.13;2.72;;;12.60;89.50;;;;;;5019899;28;20081;-65
2023/05/28 00:26:43;;;;;;;7.63;3.22;;;12.60;89.70;;;;;;5019068;28;20431;-66
2023/05/28 00:29:08;;;;;;;6.63;2.47;;;12.60;89.90;;;;;;5016837;28;20057;-66
2023/05/28 00:31:34;;;;;;;7.45;3.13;;;12.70;90.20;;;;;;5016436;28;20029;-65
2023/05/28 00:34:00;;;;;;;5.25;2.67;;;12.60;90.40;;;;;;5012346;28;20030;-66
2023/05/28 00:36:27;;;;;;;5.55;2.47;;;12.60;90.30;;;;;;5002764;28;20143;-65
2023/05/28 00:38:52;;;;;;;5.35;2.90;;;12.60;90.30;;;;;;5020082;28;20033;-65
2023/05/28 00:41:20;;;;;;;6.95;2.75;;;12.60;90.40;;;;;;4998840;28;20095;-65
2023/05/28 00:43:46;;;;;;;4.55;2.65;;;12.60;90.40;;;;;;5016281;28;20036;-65
2023/05/28 00:46:12;;;;;;;6.68;2.95;;;12.60;90.60;;;;;;4994695;28;20029;-66
2023/05/28 00:48:38;;;;;;;4.63;2.60;;;12.60;90.80;;;;;;5021531;28;20717;-66
2023/05/28 00:51:04;;;;;;;8.68;3.10;;;12.60;90.90;;;;;;5019713;28;20030;-66
2023/05/28 00:53:30;;;;;;;6.53;2.97;;;12.60;91.00;;;;;;5000555;28;21061;-66
2023/05/28 00:55:57;;;;;;;7.35;2.60;;;12.60;91.20;;;;;;5016008;28;20041;-66
2023/05/28 00:58:24;;;;;;;6.60;3.13;;;12.60;91.30;;;;;;5013628;28;20121;-66
2023/05/28 01:00:49;;;;;;;9.35;3.20;;;12.60;91.40;;;;;;5017852;28;20060;-66
2023/05/28 01:03:16;;;;;;;6.30;3.00;;;12.60;91.30;;;;;;5018781;28;20038;-65
2023/05/28 01:05:42;;;;;;;5.22;3.28;;;12.60;91.40;;;;;;5004869;28;20112;-66
2023/05/28 01:08:08;;;;;;;5.68;2.95;;;12.60;91.40;;;;;;4996441;28;20038;-64
2023/05/28 01:10:35;;;;;;;8.77;2.92;;;12.60;91.50;;;;;;5013946;28;20489;-66
2023/05/28 01:13:04;;;;;;;8.38;3.50;;;12.60;91.60;;;;;;4996394;28;20048;-65
2023/05/28 01:15:30;;;;;;;5.65;2.53;;;12.60;91.60;;;;;;5019428;28;20543;-65
2023/05/28 01:17:59;;;;;;;7.40;2.95;;;12.60;91.60;;;;;;5000630;28;20036;-66
2023/05/28 01:20:27;;;;;;;7.97;3.17;;;12.60;91.40;;;;;;4999331;28;20044;-65
2023/05/28 01:22:55;;;;;;;5.90;2.92;;;12.60;91.60;;;;;;5016981;28;20521;-66
2023/05/28 01:25:23;;;;;;;5.22;2.60;;;12.60;91.50;;;;;;5012777;28;20034;-66
2023/05/28 01:27:49;;;;;;;7.97;2.75;;;12.60;91.40;;;;;;5020400;28;20048;-65
2023/05/28 01:30:16;;;;;;;7.15;2.72;;;12.60;91.20;;;;;;4998936;28;20197;-65
2023/05/28 01:32:43;;;;;;;6.20;2.60;;;12.60;91.40;;;;;;5016664;28;20040;-65
2023/05/28 01:35:10;;;;;;;5.43;2.58;;;12.60;91.60;;;;;;5016245;28;20302;-64
2023/05/28 01:37:41;;;;;;;6.30;3.00;;;12.60;91.70;;;;;;5013214;28;20064;-66
2023/05/28 01:40:08;;;;;;;5.82;2.90;;;12.60;91.80;;;;;;5000612;28;20032;-65
2023/05/28 01:42:34;;;;;;;6.78;2.72;;;12.60;91.90;;;;;;4999569;28;20805;-66
2023/05/28 01:45:02;;;;;;;7.10;3.65;;;12.60;91.90;;;;;;4998536;28;20037;-65
2023/05/28 01:47:34;;;;;;;7.20;2.55;;;12.50;91.90;;;;;;5002223;28;20043;-64
2023/05/28 01:50:00;;;;;;;6.90;3.17;;;12.50;91.90;;;;;;5011491;28;20068;-64
2023/05/28 01:52:27;;;;;;;3.85;2.75;;;12.50;91.80;;;;;;5001693;28;20437;-65
2023/05/28 01:54:53;;;;;;;7.55;2.92;;;12.50;91.90;;;;;;5019015;28;20029;-65
2023/05/28 01:57:19;;;;;;;6.72;2.92;;;12.50;91.60;;;;;;4997380;28;20567;-65
2023/05/28 01:59:45;;;;;;;4.97;2.58;;;12.40;91.30;;;;;;5013949;28;20119;-66
2023/05/28 02:02:11;;;;;;;4.15;2.53;;;12.30;91.40;;;;;;4992907;28;20123;-65
2023/05/28 02:04:38;;;;;;;6.53;2.92;;;12.20;91.50;;;;;;4999838;28;20037;-66
2023/05/28 02:07:04;;;;;;;6.65;3.10;;;12.20;91.40;;;;;;5005287;28;20056;-65
2023/05/28 02:09:30;;;;;;;7.35;3.42;;;12.10;91.40;;;;;;5021738;28;20044;-66
2023/05/28 02:11:56;;;;;;;5.88;2.95;;;12.00;91.50;;;;;;5003780;28;20037;-65
2023/05/28 02:14:23;;;;;;;4.22;2.70;;;12.00;91.50;;;;;;4998360;28;20139;-66
2023/05/28 02:16:49;;;;;;;4.40;2.97;;;11.90;91.90;;;;;;5017766;28;20140;-65
2023/05/28 02:19:15;;;;;;;4.47;2.80;;;11.80;92.20;;;;;;5022488;28;20547;-66
2023/05/28 02:21:42;;;;;;;6.22;2.67;;;11.70;92.20;;;;;;5006960;28;20033;-66
2023/05/28 02:24:07;;;;;;;5.95;3.50;;;11.70;92.30;;;;;;5000080;28;20671;-65
2023/05/28 02:26:34;;;;;;;5.90;3.05;;;11.60;92.50;;;;;;4998819;28;20034;-66
2023/05/28 02:29:00;;;;;;;5.63;2.88;;;11.50;92.40;;;;;;5006578;28;20040;-65
2023/05/28 02:31:26;;;;;;;5.40;3.15;;;11.50;92.40;;;;;;5022901;28;20053;-66
2023/05/28 02:33:51;;;;;;;4.15;3.05;;;11.40;92.70;;;;;;5021827;28;20851;-65
2023/05/28 02:36:17;;;;;;;4.35;2.40;;;11.40;92.90;;;;;;5017939;28;20623;-65
2023/05/28 02:38:43;;;;;;;5.80;2.83;;;11.30;93.00;;;;;;5017015;28;20061;-66
2023/05/28 02:41:10;;;;;;;7.20;2.95;;;11.30;93.10;;;;;;4995506;28;20034;-65
2023/05/28 02:43:37;;;;;;;5.20;2.90;;;11.20;93.40;;;;;;5006833;28;20030;-65
2023/05/28 02:46:06;;;;;;;8.35;3.20;;;11.20;93.50;;;;;;5002876;28;20061;-65
2023/05/28 02:48:33;;;;;;;7.15;3.40;;;11.10;93.60;;;;;;5002206;28;20048;-65
2023/05/28 02:50:59;;;;;;;7.53;3.33;;;11.10;93.70;;;;;;5020369;28;20041;-65
2023/05/28 02:53:45;;;;;;;5.05;3.00;;;11.10;93.90;;;;;;5013800;28;20044;-65
2023/05/28 02:56:11;;;;;;;5.78;3.38;;;11.10;94.10;;;;;;5002975;28;20036;-65
2023/05/28 02:58:41;;;;;;;11.38;3.70;;;11.00;94.20;;;;;;5022605;28;20111;-65
2023/05/28 03:01:07;;;;;;;6.90;2.88;;;11.00;94.20;;;;;;5000496;28;20061;-65
2023/05/28 03:03:34;;;;;;;5.75;3.00;;;11.00;94.20;;;;;;4998862;28;20072;-64
2023/05/28 03:06:00;;;;;;;8.00;2.88;;;11.00;94.30;;;;;;4995867;28;20611;-65
2023/05/28 03:08:29;;;;;;;9.52;3.58;;;11.00;94.40;;;;;;4999645;28;20044;-63
2023/05/28 03:10:55;;;;;;;8.63;3.75;;;10.90;94.40;;;;;;5004932;28;20894;-65
2023/05/28 03:13:21;;;;;;;6.22;3.25;;;11.00;94.50;;;;;;4998055;28;20049;-64
2023/05/28 03:15:47;;;;;;;5.45;2.78;;;11.00;94.50;;;;;;5003990;28;20096;-65
2023/05/28 03:18:14;;;;;;;5.22;2.90;;;11.00;94.50;;;;;;4993153;28;20029;-65
2023/05/28 03:20:40;;;;;;;8.82;3.47;;;11.00;94.60;;;;;;4996628;28;20033;-66
2023/05/28 03:23:05;;;;;;;9.70;3.53;;;11.00;94.60;;;;;;5002630;28;20041;-65
2023/05/28 03:25:41;;;;;;;4.88;3.03;;;11.00;94.80;;;;;;5000293;28;20767;-65
2023/05/28 03:28:06;;;;;;;4.57;3.03;;;11.00;95.00;;;;;;5016715;28;20095;-64
2023/05/28 03:30:47;;;;;;;5.55;3.13;;;10.90;94.90;;;;;;4999174;28;20484;-65
2023/05/28 03:33:13;;;;;;;11.20;4.00;;;10.90;94.80;;;;;;4998616;28;20033;-65
2023/05/28 03:35:39;;;;;;;7.10;3.50;;;10.90;94.90;;;;;;5022290;28;20041;-65
2023/05/28 03:38:05;;;;;;;6.47;3.10;;;11.00;94.90;;;;;;5001167;28;20035;-65
2023/05/28 03:40:31;;;;;;;7.63;3.47;;;10.90;94.80;;;;;;5000773;28;20150;-65
2023/05/28 03:42:59;;;;;;;6.55;3.67;;;10.90;95.00;;;;;;4997926;28;20030;-65
2023/05/28 03:45:25;;;;;;;6.75;3.60;;;10.90;95.30;;;;;;4997235;28;20041;-64
2023/05/28 03:47:52;;;;;;;6.97;3.38;;;10.90;95.50;;;;;;5022398;28;20037;-64
2023/05/28 03:50:19;;;;;;;6.03;3.30;;;10.90;95.80;;;;;;5000953;28;20026;-65
2023/05/28 03:52:45;;;;;;;12.15;3.65;;;10.90;95.80;;;;;;5004612;28;20037;-65
2023/05/28 03:55:11;;;;;;;8.23;4.13;;;10.90;95.80;;;;;;4996274;28;20057;-65
2023/05/28 03:57:39;;;;;;;6.82;3.88;;;11.00;95.90;;;;;;5013252;28;20030;-65
2023/05/28 04:00:07;;;;;;;6.93;3.85;;;11.00;95.80;;;;;;5000817;28;20033;-65
2023/05/28 04:02:42;;;;;;;8.73;3.55;;;11.00;95.80;;;;;;5015702;28;20065;-65
2023/05/28 04:05:08;;;;;;;8.15;3.63;;;11.00;95.80;;;;;;4999466;28;20037;-64
2023/05/28 04:07:34;;;;;;;4.95;3.17;;;11.00;95.90;;;;;;4997860;28;20041;-65
2023/05/28 04:10:01;;;;;;;5.60;3.50;;;11.00;96.10;;;;;;5001597;28;20029;-65
2023/05/28 04:12:27;;;;;;;7.05;3.80;;;11.10;96.30;;;;;;5000224;28;20044;-65
2023/05/28 04:14:52;;;;;;;6.18;3.05;;;11.10;96.30;;;;;;5003266;28;20037;-65
2023/05/28 04:17:18;;;;;;;6.05;3.47;;;11.10;96.40;;;;;;4999372;28;20045;-64
2023/05/28 04:19:45;;;;;;;8.80;3.67;;;11.20;96.60;;;;;;5016425;28;20040;-65
2023/05/28 04:22:12;;;;;;;6.75;3.35;;;11.20;96.70;;;;;;4997787;28;20037;-65
2023/05/28 04:24:37;;;;;;;6.40;3.42;;;11.20;96.80;;;;;;5001069;28;20040;-65
2023/05/28 04:27:04;;;;;;;9.02;4.15;;;11.20;96.90;;;;;;5003137;28;20029;-65
2023/05/28 04:29:30;;;;;;;6.05;3.17;;;11.30;97.00;;;;;;5002451;28;20025;-65
2023/05/28 04:32:00;;;;;;;6.25;3.08;;;11.30;97.00;;;;;;5016734;28;20030;-65
2023/05/28 04:34:26;;;;;;;8.90;3.67;;;11.40;97.10;;;;;;4996706;28;20091;-65
2023/05/28 04:36:52;;;;;;;5.70;3.50;;;11.40;97.20;;;;;;4997229;28;20052;-65
2023/05/28 04:39:20;;;;;;;6.15;3.42;;;11.50;97.30;;;;;;5002222;28;20117;-65
2023/05/28 04:41:46;;;;;;;7.30;3.40;;;11.50;97.30;;;;;;5018243;28;20931;-65
2023/05/28 04:44:15;;;;;;;9.77;3.83;;;11.60;97.30;;;;;;5014525;28;20030;-65
2023/05/28 04:46:45;;;;;;;13.25;3.88;;;11.70;97.40;;;;;;5003627;28;20057;-65
2023/05/28 04:49:12;;;;;;;7.97;3.40;;;11.70;97.30;;;;;;4992385;28;20018;-65
2023/05/28 04:51:38;;;;;;;7.13;4.22;;;11.80;97.40;;;;;;5018742;28;20029;-65
2023/05/28 04:54:04;;;;;;;9.95;3.63;;;11.90;97.50;;;;;;5018191;28;20044;-65
2023/05/28 04:56:30;;;;;;;6.78;3.33;;;12.00;97.50;;;;;;4999281;28;20043;-66
2023/05/28 04:58:57;;;;;;;9.73;4.03;;;12.00;97.50;;;;;;4996722;28;20025;-65
2023/05/28 05:01:24;;;;;;;7.50;3.40;;;12.10;97.50;;;;;;5013800;28;20045;-65
2023/05/28 05:03:51;;;;;;;6.47;4.10;;;12.10;97.60;;;;;;5017981;28;20692;-65
2023/05/28 05:06:17;;;;;;;6.95;3.50;;;12.20;97.60;;;;;;5001191;28;20033;-65
2023/05/28 05:08:43;;;;;;;6.38;3.38;;;12.30;97.60;;;;;;5017884;28;20040;-66
2023/05/28 05:11:08;;;;;;;6.50;3.47;;;12.40;97.70;;;;;;4996444;28;20038;-66
2023/05/28 05:13:34;;;;;;;6.68;3.75;;;12.50;97.90;;;;;;5014796;28;20493;-64
2023/05/28 05:16:01;;;;;;;5.80;3.38;;;12.60;98.00;;;;;;4997038;28;20061;-66
2023/05/28 05:18:27;;;;;;;6.38;3.65;;;12.70;97.90;;;;;;5019853;28;20030;-65
2023/05/28 05:20:53;;;;;;;7.18;3.80;;;12.80;97.80;;;;;;5019757;28;20035;-66
2023/05/28 05:23:19;;;;;;;9.63;3.20;;;12.90;97.70;;;;;;5015518;28;20045;-65
2023/05/28 05:25:47;;;;;;;7.20;3.50;;;13.10;97.40;;;;;;4997523;28;20037;-64
2023/05/28 05:28:13;;;;;;;8.70;3.67;;;13.20;97.10;;;;;;4997359;28;20115;-65
2023/05/28 05:30:39;;;;;;;10.10;3.45;;;13.40;96.90;;;;;;5004468;28;20040;-65
2023/05/28 05:33:05;;;;;;;5.60;3.38;;;13.60;96.60;;;;;;5000070;28;20029;-66
2023/05/28 05:35:39;;;;;;;7.60;3.35;;;13.80;96.60;;;;;;4996801;28;20516;-65
2023/05/28 05:38:38;;;;;;;6.03;3.20;;;13.90;96.30;;;;;;4972025;28;20117;-65
2023/05/28 05:41:13;;;;;;;5.93;3.00;;;14.10;96.10;;;;;;5000648;28;20344;-65
2023/05/28 05:44:02;;;;;;;8.98;3.45;;;14.30;95.80;;;;;;4991803;28;20037;-65
2023/05/28 05:46:28;;;;;;;6.13;3.20;;;14.40;95.40;;;;;;5001747;28;20123;-65
2023/05/28 05:48:53;;;;;;;8.27;3.40;;;14.50;95.30;;;;;;4997541;28;20033;-65
2023/05/28 05:51:21;;;;;;;6.97;3.25;;;14.60;95.20;;;;;;4998350;28;20387;-64
2023/05/28 05:53:46;;;;;;;6.45;3.40;;;14.80;95.20;;;;;;4996407;28;20033;-65
2023/05/28 05:56:12;;;;;;;5.50;2.80;;;15.10;94.60;;;;;;5001231;28;20064;-65
2023/05/28 05:58:38;;;;;;;7.40;3.83;;;15.20;94.60;;;;;;5019305;28;20030;-65
2023/05/28 06:01:05;;;;;;;9.52;3.70;;;15.30;94.20;;;;;;5015348;28;20025;-65
2023/05/28 06:03:30;;;;;;;6.28;3.30;;;15.30;92.90;;;;;;5000646;28;20064;-64
2023/05/28 06:06:08;;;;;;;5.53;3.20;;;15.40;92.90;;;;;;5014760;28;20202;-65
2023/05/28 06:09:00;;;;;;;5.72;3.42;;;15.40;92.90;;;;;;4996234;28;20141;-66
2023/05/28 06:11:42;;;;;;;8.65;3.70;;;15.70;92.50;;;;;;5016767;28;20083;-67
2023/05/28 06:14:08;;;;;;;6.65;3.08;;;15.90;91.70;;;;;;5001052;28;20871;-67
2023/05/28 06:16:34;;;;;;;10.77;4.30;;;16.10;90.80;;;;;;4995440;28;20033;-67
2023/05/28 06:19:00;;;;;;;9.23;3.40;;;16.20;89.60;;;;;;5011851;28;20089;-67
2023/05/28 06:21:26;;;;;;;5.75;3.17;;;16.30;88.40;;;;;;4998008;28;20038;-64
2023/05/28 06:23:52;;;;;;;9.63;3.40;;;16.40;88.40;;;;;;5020755;28;20065;-66
2023/05/28 06:26:18;;;;;;;7.63;2.97;;;16.50;87.90;;;;;;4996834;28;20783;-66
2023/05/28 06:28:44;;;;;;;8.85;3.60;;;16.60;86.20;;;;;;5014849;28;20099;-67
2023/05/28 06:31:09;;;;;;;8.20;3.40;;;16.70;85.60;;;;;;4995547;28;20034;-67
2023/05/28 06:33:35;;;;;;;5.95;2.88;;;16.80;84.00;;;;;;5022197;28;20072;-66
2023/05/28 06:36:02;;;;;;;6.93;2.70;;;16.90;83.50;;;;;;4986676;28;20582;-66
2023/05/28 06:38:28;;;;;;;5.45;2.95;;;17.00;83.50;;;;;;4997807;28;20041;-67
2023/05/28 06:40:54;;;;;;;10.15;4.68;;;17.10;83.30;;;;;;4995977;28;20025;-67
2023/05/28 06:43:23;;;;;;;9.35;5.07;;;17.20;82.10;;;;;;4994383;28;20021;-66
2023/05/28 06:46:00;;;;;;;8.05;4.05;;;17.30;81.10;;;;;;5017414;28;20037;-66
2023/05/28 06:48:25;;;;;;;10.80;4.47;;;17.40;80.20;;;;;;5000020;28;20049;-66
2023/05/28 06:50:52;;;;;;;6.72;3.10;;;17.40;80.30;;;;;;5014764;28;20037;-67
2023/05/28 06:53:18;;;;;;;8.40;3.30;;;17.50;78.30;;;;;;4999167;28;20068;-67
2023/05/28 06:55:44;;;;;;;10.07;3.53;;;17.70;78.20;;;;;;5017349;28;20033;-66
2023/05/28 06:58:30;;;;;;;3.80;2.30;;;17.70;78.20;;;;;;5018826;28;20092;-66
2023/05/28 07:01:22;;;;;;;7.57;3.08;;;17.80;76.90;;;;;;5017164;28;20059;-67
2023/05/28 07:04:00;;;;;;;10.25;2.75;;;17.90;75.60;;;;;;5002421;28;20049;-66
2023/05/28 07:06:33;;;;;;;8.05;2.78;;;18.00;72.50;;;;;;5000120;28;20026;-66
2023/05/28 07:09:00;;;;;;;9.38;3.47;;;18.10;71.70;;;;;;4996108;28;20033;-67
2023/05/28 07:11:26;;;;;;;10.20;3.35;;;18.20;72.20;;;;;;5000352;28;20080;-65
2023/05/28 07:13:54;;;;;;;8.68;2.90;;;18.30;72.20;;;;;;5022379;28;20477;-66
2023/05/28 07:16:22;;;;;;;4.80;2.92;;;18.40;69.80;;;;;;5000707;28;20060;-66
2023/05/28 07:18:48;;;;;;;5.95;2.55;;;18.40;69.10;;;;;;5017952;28;20400;-66
2023/05/28 07:21:15;;;;;;;9.13;2.63;;;18.50;70.10;;;;;;5003214;28;20452;-66
2023/05/28 07:23:44;;;;;;;6.82;2.70;;;18.60;68.90;;;;;;5001976;28;20666;-66
2023/05/28 07:26:11;;;;;;;5.97;2.42;;;18.70;68.00;;;;;;5001456;28;20123;-66
2023/05/28 07:28:37;;;;;;;5.07;2.33;;;18.80;67.00;;;;;;5008671;28;20780;-65
2023/05/28 07:31:03;;;;;;;6.45;2.30;;;18.90;66.20;;;;;;5005624;28;20845;-65
2023/05/28 07:33:29;;;;;;;4.93;2.10;;;19.00;64.60;;;;;;5001824;28;20252;-65
2023/05/28 07:35:56;;;;;;;5.20;2.22;;;19.10;63.10;;;;;;5000229;28;20029;-66
2023/05/28 07:38:22;;;;;;;3.70;2.13;;;19.10;62.30;;;;;;5004856;28;20108;-66
2023/05/28 07:40:51;;;;;;;3.58;2.03;;;19.20;62.30;;;;;;5022081;28;20497;-66
2023/05/28 07:43:32;;;;;;;4.97;2.08;;;19.20;59.30;;;;;;5002633;28;20056;-66
2023/05/28 07:46:03;;;;;;;2.95;1.48;;;19.30;56.40;;;;;;4998581;28;20109;-65
2023/05/28 07:48:36;;;;;;;3.80;1.83;;;19.40;54.30;;;;;;4998984;28;20033;-66
2023/05/28 07:51:10;;;;;;;6.53;2.35;;;19.40;54.80;;;;;;5005104;28;20026;-67
2023/05/28 07:53:45;;;;;;;4.30;1.88;;;19.50;54.10;;;;;;5021689;28;20604;-66
2023/05/28 07:56:17;;;;;;;6.20;2.25;;;19.60;57.20;;;;;;4999557;28;20041;-66
2023/05/28 07:58:45;;;;;;;6.35;2.78;;;19.60;56.80;;;;;;5003374;28;20033;-66
2023/05/28 08:01:12;;;;;;;5.22;2.20;;;19.70;55.40;;;;;;5001384;28;20077;-66
2023/05/28 08:03:38;;;;;;;4.65;1.88;;;19.70;55.50;;;;;;5006695;28;20025;-67
2023/05/28 08:06:06;;;;;;;6.43;2.40;;;19.70;51.80;;;;;;5003829;28;20707;-66
2023/05/28 08:08:32;;;;;;;4.40;1.98;;;19.80;53.50;;;;;;5002256;28;20737;-65
2023/05/28 08:10:58;;;;;;;5.20;2.13;;;19.90;53.40;;;;;;5002537;28;20029;-66
2023/05/28 08:13:25;;;;;;;3.67;1.92;;;19.80;53.30;;;;;;4998288;28;20106;-66
2023/05/28 08:15:52;;;;;;;4.35;2.15;;;19.90;53.70;;;;;;5006725;28;20047;-66
2023/05/28 08:18:21;;;;;;;8.75;2.30;;;20.00;54.00;;;;;;5002986;28;20488;-66
2023/05/28 08:20:47;;;;;;;6.88;2.42;;;20.10;53.00;;;;;;5005640;28;20053;-67
2023/05/28 08:23:16;;;;;;;5.85;2.00;;;20.20;53.40;;;;;;4997878;28;20841;-66
2023/05/28 08:25:43;;;;;;;5.47;2.40;;;20.30;53.80;;;;;;5014919;28;20064;-66
2023/05/28 08:28:17;;;;;;;6.18;2.15;;;20.30;53.20;;;;;;5000766;28;20114;-66
2023/05/28 08:30:43;;;;;;;3.80;2.10;;;20.50;52.40;;;;;;5002959;28;20052;-66
2023/05/28 08:33:20;;;;;;;5.85;2.33;;;20.50;52.40;;;;;;4997462;28;20099;-66
2023/05/28 08:35:46;;;;;;;4.53;2.00;;;20.60;51.70;;;;;;4999728;28;20631;-66
2023/05/28 08:38:12;;;;;;;4.53;1.80;;;20.70;52.10;;;;;;4993681;28;20137;-66
2023/05/28 08:40:50;;;;;;;5.63;2.00;;;20.70;51.50;;;;;;4994390;28;20938;-65
2023/05/28 08:43:16;;;;;;;5.38;2.13;;;20.90;49.10;;;;;;4993614;28;20048;-64
2023/05/28 08:45:42;;;;;;;5.68;2.10;;;20.90;49.40;;;;;;5001548;28;20037;-65
2023/05/28 08:48:12;;;;;;;3.85;1.73;;;21.00;49.00;;;;;;4997454;28;20037;-65
2023/05/28 08:50:41;;;;;;;5.43;1.98;;;21.10;48.90;;;;;;5013430;28;20029;-66
2023/05/28 08:53:17;;;;;;;4.23;1.83;;;21.20;48.80;;;;;;4995646;28;20120;-66
2023/05/28 08:55:45;;;;;;;3.88;2.00;;;21.30;47.70;;;;;;5021342;28;20037;-66
2023/05/28 08:58:18;;;;;;;6.03;2.58;;;21.40;48.20;;;;;;5017469;28;20030;-65
2023/05/28 09:00:46;;;;;;;7.30;2.10;;;21.50;49.20;;;;;;5016642;28;20037;-66
2023/05/28 09:03:24;;;;;;;3.88;1.95;;;21.50;47.80;;;;;;5013711;28;20045;-65
2023/05/28 09:05:51;;;;;;;4.90;2.10;;;21.60;48.50;;;;;;4990285;28;20053;-67
2023/05/28 09:08:19;;;;;;;4.25;2.15;;;21.70;45.80;;;;;;5004530;28;20489;-67
2023/05/28 09:10:45;;;;;;;2.88;1.98;;;21.80;48.00;;;;;;5012004;28;20862;-65
2023/05/28 09:13:11;;;;;;;4.28;1.80;;;21.90;47.00;;;;;;4991528;28;20768;-65
2023/05/28 09:15:37;;;;;;;5.75;1.90;;;21.90;47.40;;;;;;4997488;28;20029;-65
2023/05/28 09:18:07;;;;;;;5.20;2.10;;;22.00;45.10;;;;;;4998495;28;20025;-63
2023/05/28 09:20:34;;;;;;;6.85;1.60;;;22.10;45.20;;;;;;4993515;28;20400;-64
2023/05/28 09:23:06;;;;;;;4.03;1.88;;;22.20;45.40;;;;;;4999812;28;20052;-64
2023/05/28 09:26:00;;;;;;;5.15;2.08;;;22.20;44.80;;;;;;4995197;28;20026;-62
2023/05/28 09:28:31;;;;;;;5.78;2.55;;;22.30;43.90;;;;;;5014003;28;20595;-62
2023/05/28 09:31:04;;;;;;;7.28;2.85;;;22.40;45.70;;;;;;5016159;28;20072;-63
2023/05/28 09:33:30;;;;;;;6.22;1.80;;;22.50;44.50;;;;;;5019124;28;20029;-63
2023/05/28 09:36:01;;;;;;;4.10;2.28;;;22.40;42.10;;;;;;5019526;28;20041;-63
2023/05/28 09:38:27;;;;;;;4.15;2.03;;;22.40;43.00;;;;;;5017817;28;20034;-63
2023/05/28 09:40:56;;;;;;;4.38;2.38;;;22.20;44.30;;;;;;5017280;28;20083;-63
2023/05/28 09:43:29;;;;;;;7.05;2.53;;;22.20;45.00;;;;;;5008138;28;20030;-62
2023/05/28 09:46:09;;;;;;;6.65;2.08;;;22.30;44.40;;;;;;5018476;28;20112;-65
2023/05/28 09:48:35;;;;;;;5.97;2.13;;;22.30;43.90;;;;;;5018309;28;20033;-65
2023/05/28 09:51:04;;;;;;;5.03;1.90;;;22.40;46.30;;;;;;5018271;28;20029;-65
2023/05/28 09:53:33;;;;;;;4.35;2.03;;;22.50;44.80;;;;;;4999757;28;20578;-65
2023/05/28 09:56:02;;;;;;;2.55;1.77;;;22.70;44.60;;;;;;5017526;28;20025;-64
2023/05/28 09:58:34;;;;;;;3.65;1.83;;;22.80;43.90;;;;;;5019790;28;20112;-65
2023/05/28 10:01:04;;;;;;;4.82;1.85;;;22.80;41.30;;;;;;5016334;28;20027;-65
2023/05/28 10:03:44;;;;;;;7.35;3.38;;;23.10;42.80;;;;;;5016978;28;20029;-65
2023/05/28 10:06:23;;;;;;;4.45;1.75;;;23.40;43.50;;;;;;5012714;28;20041;-66
2023/05/28 10:08:53;;;;;;;3.75;1.73;;;23.50;42.20;;;;;;5011725;28;20037;-64
2023/05/28 10:11:29;;;;;;;3.78;1.90;;;23.60;42.20;;;;;;5020050;28;20108;-65
2023/05/28 10:13:56;;;;;;;4.78;1.80;;;23.50;41.30;;;;;;5019054;28;20036;-65
2023/05/28 10:16:21;;;;;;;4.88;2.00;;;23.30;41.90;;;;;;5015647;28;20048;-66
2023/05/28 10:18:48;;;;;;;4.72;2.20;;;23.30;41.90;;;;;;5014702;28;20149;-65
2023/05/28 10:21:14;;;;;;;5.07;1.83;;;23.10;41.80;;;;;;5011361;28;20474;-65
2023/05/28 10:23:44;;;;;;;3.85;1.83;;;23.10;42.00;;;;;;5020658;28;20039;-64
2023/05/28 10:26:11;;;;;;;4.35;1.90;;;23.10;41.80;;;;;;5019449;28;20124;-65
2023/05/28 10:28:37;;;;;;;4.25;1.90;;;23.20;42.40;;;;;;5020991;28;20056;-65
2023/05/28 10:31:07;;;;;;;4.40;2.10;;;23.40;41.60;;;;;;5020176;28;20028;-64
2023/05/28 10:33:41;;;;;;;5.03;2.10;;;23.50;41.60;;;;;;5020741;28;20029;-64
2023/05/28 10:36:14;;;;;;;6.15;1.98;;;23.70;41.50;;;;;;5020850;28;20033;-65
2023/05/28 10:38:49;;;;;;;4.28;1.83;;;23.70;40.40;;;;;;5017551;28;20034;-65
2023/05/28 10:41:19;;;;;;;3.70;1.95;;;23.80;40.90;;;;;;5019185;28;20030;-65
2023/05/28 10:43:46;;;;;;;4.75;2.10;;;23.90;41.70;;;;;;5018018;28;20032;-66
2023/05/28 10:46:22;;;;;;;4.95;2.00;;;24.10;40.20;;;;;;5014373;28;20125;-64
2023/05/28 10:49:14;;;;;;;6.13;1.85;;;24.30;38.10;;;;;;5019694;28;20758;-65
2023/05/28 10:51:57;;;;;;;3.90;2.20;;;24.30;39.30;;;;;;5019198;28;20034;-64
2023/05/28 10:54:23;;;;;;;3.55;1.90;;;24.40;40.30;;;;;;5018511;28;20489;-63
2023/05/28 10:57:07;;;;;;;3.70;1.95;;;24.50;39.50;;;;;;5017869;28;20029;-64
2023/05/28 10:59:59;;;;;;;4.32;1.83;;;24.50;39.30;;;;;;5016687;28;20044;-64
2023/05/28 11:02:28;;;;;;;2.70;1.60;;;24.40;38.80;;;;;;5014971;28;20050;-64
2023/05/28 11:05:00;;;;;;;3.53;1.83;;;24.10;41.20;;;;;;5021994;28;20116;-64
2023/05/28 11:07:33;;;;;;;4.47;2.08;;;24.00;40.30;;;;;;5018953;28;20053;-63
2023/05/28 11:10:00;;;;;;;4.15;1.70;;;23.90;39.70;;;;;;5004801;28;20540;-65
2023/05/28 11:12:26;;;;;;;3.08;1.67;;;23.90;40.70;;;;;;5016042;28;20044;-65
2023/05/28 11:14:53;;;;;;;6.03;2.08;;;23.90;40.40;;;;;;5023825;28;20057;-65
2023/05/28 11:17:19;;;;;;;4.20;1.73;;;24.00;39.80;;;;;;5020782;28;20030;-65
2023/05/28 11:19:47;;;;;;;3.88;1.92;;;24.00;39.10;;;;;;5019884;28;20078;-65
2023/05/28 11:22:14;;;;;;;4.20;1.70;;;23.90;39.30;;;;;;5015832;28;20030;-65
2023/05/28 11:25:04;;;;;;;2.63;1.85;;;23.90;40.30;;;;;;5002526;28;20032;-65
2023/05/28 11:27:33;;;;;;;3.05;1.70;;;23.90;40.10;;;;;;5022305;28;20036;-65
2023/05/28 11:30:00;;;;;;;3.53;1.80;;;24.00;39.60;;;;;;5020144;28;20025;-65
2023/05/28 11:32:27;;;;;;;2.92;1.60;;;23.90;38.20;;;;;;5018584;28;20026;-64
2023/05/28 11:34:58;;;;;;;4.22;1.52;;;23.70;39.60;;;;;;4999627;28;20381;-65
2023/05/28 11:37:26;;;;;;;3.60;2.20;;;23.60;39.50;;;;;;5014096;28;20061;-65
2023/05/28 11:39:56;;;;;;;2.85;1.70;;;23.60;38.50;;;;;;5019139;28;20079;-65
2023/05/28 11:42:24;;;;;;;2.55;1.50;;;23.70;39.50;;;;;;5020695;28;20032;-65
2023/05/28 11:44:53;;;;;;;6.10;1.77;;;23.70;40.50;;;;;;5019961;28;20021;-64
2023/05/28 11:47:20;;;;;;;4.45;2.13;;;23.80;40.20;;;;;;5016073;28;20390;-64
2023/05/28 11:49:46;;;;;;;4.28;1.83;;;23.90;40.00;;;;;;5015933;28;20041;-65
2023/05/28 11:52:21;;;;;;;4.20;1.70;;;23.90;38.60;;;;;;5018501;28;20029;-64
2023/05/28 11:55:07;;;;;;;4.03;1.42;;;23.70;39.30;;;;;;5021078;28;20111;-65
2023/05/28 11:57:33;;;;;;;3.00;1.52;;;23.60;39.60;;;;;;5018368;28;20029;-63
2023/05/28 12:00:07;;;;;;;5.25;2.10;;;23.60;40.90;;;;;;5016271;28;20805;-63
2023/05/28 12:02:43;;;;;;;2.63;1.30;;;23.60;40.50;;;;;;4998574;28;20045;-62
2023/05/28 12:05:09;;;;;;;5.43;1.90;;;23.70;40.50;;;;;;5018867;28;20048;-62
2023/05/28 12:07:36;;;;;;;3.28;1.73;;;23.80;41.60;;;;;;5020512;28;20029;-62
2023/05/28 12:10:03;;;;;;;3.38;1.50;;;23.80;40.20;;;;;;5018652;28;20029;-63
2023/05/28 12:12:31;;;;;;;5.25;2.17;;;23.80;40.00;;;;;;5020003;28;20737;-63
2023/05/28 12:15:00;;;;;;;4.35;2.00;;;23.80;39.90;;;;;;5014273;28;20073;-63
2023/05/28 12:17:26;;;;;;;4.15;1.67;;;23.90;37.60;;;;;;5017896;28;20033;-63
2023/05/28 12:19:51;;;;;;;4.03;1.77;;;23.70;39.10;;;;;;5020993;28;20107;-63
2023/05/28 12:22:18;;;;;;;4.45;2.10;;;23.60;40.60;;;;;;5017635;28;20034;-63
2023/05/28 12:24:53;;;;;;;4.40;2.20;;;23.70;39.30;;;;;;5015736;28;20064;-63
2023/05/28 12:27:22;;;;;;;2.45;1.80;;;23.80;40.00;;;;;;5013147;28;20476;-63
2023/05/28 12:29:47;;;;;;;3.38;1.77;;;23.70;40.20;;;;;;5017212;28;20107;-63
2023/05/28 12:32:13;;;;;;;3.33;1.67;;;23.80;40.50;;;;;;5019570;28;20033;-62
2023/05/28 12:34:39;;;;;;;3.22;1.55;;;23.90;41.00;;;;;;5019078;28;20026;-63
2023/05/28 12:37:05;;;;;;;4.07;1.95;;;24.00;40.30;;;;;;5015399;28;20037;-63
2023/05/28 12:39:31;;;;;;;5.22;1.70;;;24.00;38.00;;;;;;5014757;28;20105;-63
2023/05/28 12:41:57;;;;;;;2.92;1.88;;;24.00;39.60;;;;;;5011828;28;20025;-63
2023/05/28 12:44:23;;;;;;;3.60;2.08;;;24.10;40.40;;;;;;5019135;28;20033;-63
2023/05/28 12:46:50;;;;;;;3.45;1.77;;;24.10;38.60;;;;;;5019101;28;20112;-63
2023/05/28 12:49:16;;;;;;;5.18;1.60;;;24.10;39.20;;;;;;5015603;28;20172;-63
2023/05/28 12:51:42;;;;;;;5.38;1.85;;;24.10;39.10;;;;;;5018565;28;20120;-63
2023/05/28 12:54:08;;;;;;;2.55;1.80;;;24.00;39.00;;;;;;5011730;28;20157;-63